Hurley, South Dakota
Current Conditions -  °F | °C
As of 9:04 AM on Saturday 20 Dec 2014 (Local Time) from KFSD Reporting Station
Haze Haze  
Wind Chill: 23°   Ceiling: 1000
Heat Index: 32°   Visibility: 3mi
Dew Point: 29°   Wind: 12mph
Humidity: 88%   Direction: 180°S
Pressure: 30.06"   Gusts: NA
Location:  43.28°N, 97.09°W
Report Text: KFSD 201504Z 18010KT 3SM BR OVC010 00/M02 A3006 RMK AO2 SFC VIS 5 CIG 007V011 T00001017
Loading
Personal Weather Stations






























Interactive Weather Map New forecast layout! Learn more

10-Day Weather Forecast

Advertisements
Track Severe Weather on mobile